Time;durP1;ratioP1;P1;durP2;ratioP2;P2;SDS_P1;SDS_P2;PMS_P1;PMS_P2;Temp;Humidity;BMP_temperature;BMP_pressure;BME280_temperature;BME280_humidity;BME280_pressure;Samples;Min_cycle;Max_cycle;Signal;HPM_P1;HPM_P2
2021/12/06 00:07:10;;;;;;;25.35;23.30;;;;;;;0.67;100.00;101188.59;5193190;28;20045;-82
2021/12/06 00:09:41;;;;;;;25.38;23.27;;;;;;;0.65;100.00;101201.22;5195984;28;20049;-81
2021/12/06 00:12:13;;;;;;;25.88;23.65;;;;;;;0.52;100.00;101214.34;5195449;28;20021;-82
2021/12/06 00:14:43;;;;;;;26.05;23.55;;;;;;;0.40;100.00;101207.81;5179408;28;20089;-81
2021/12/06 00:17:16;;;;;;;27.35;24.60;;;;;;;0.50;100.00;101231.47;5195394;28;20029;-83
2021/12/06 00:19:47;;;;;;;26.55;23.98;;;;;;;0.56;100.00;101236.88;5192648;28;20037;-80
2021/12/06 00:22:23;;;;;;;25.35;23.30;;;;;;;0.36;100.00;101214.47;5191179;28;20026;-80
2021/12/06 00:24:55;;;;;;;24.38;22.30;;;;;;;0.64;100.00;101239.44;5190650;28;20024;-80
2021/12/06 00:27:26;;;;;;;26.60;24.20;;;;;;;0.70;100.00;101243.22;5189975;28;20543;-81
2021/12/06 00:29:57;;;;;;;27.00;24.63;;;;;;;0.38;100.00;101185.06;5189991;28;20076;-81
2021/12/06 00:32:27;;;;;;;29.90;26.77;;;;;;;0.41;100.00;101180.22;5190600;28;20427;-80
2021/12/06 00:34:58;;;;;;;31.20;28.75;;;;;;;0.59;100.00;101217.91;5190502;28;20046;-79
2021/12/06 00:37:33;;;;;;;28.40;26.17;;;;;;;0.54;100.00;101224.78;5192957;28;20480;-82
2021/12/06 00:40:06;;;;;;;31.13;28.38;;;;;;;0.45;100.00;101223.22;5194900;28;20026;-83
2021/12/06 00:42:37;;;;;;;26.85;24.40;;;;;;;0.56;100.00;101250.19;5195001;28;20396;-82
2021/12/06 00:45:08;;;;;;;27.50;25.08;;;;;;;0.33;100.00;101236.09;5194535;28;20033;-83
2021/12/06 00:47:38;;;;;;;30.40;27.67;;;;;;;0.53;100.00;101263.81;5195295;28;20075;-84
2021/12/06 00:50:09;;;;;;;30.23;27.17;;;;;;;0.50;100.00;101258.03;5195611;28;20029;-82
2021/12/06 00:52:39;;;;;;;28.95;26.40;;;;;;;0.19;100.00;101208.50;5193761;28;20538;-80
2021/12/06 00:55:10;;;;;;;30.67;27.90;;;;;;;0.62;100.00;101273.34;5189769;28;20033;-79
2021/12/06 00:57:41;;;;;;;32.53;29.73;;;;;;;0.39;100.00;101238.03;5189935;28;20119;-80
2021/12/06 01:00:17;;;;;;;31.50;28.67;;;;;;;0.45;100.00;101237.31;5190496;28;20025;-80
2021/12/06 01:02:47;;;;;;;30.70;27.90;;;;;;;0.70;100.00;101282.25;5188402;28;20108;-82
2021/12/06 01:05:22;;;;;;;28.85;26.63;;;;;;;0.49;100.00;101257.22;5191349;28;20508;-83
2021/12/06 01:07:56;;;;;;;27.90;25.48;;;;;;;0.74;100.00;101291.50;5192756;28;20025;-83
2021/12/06 01:10:28;;;;;;;28.98;26.60;;;;;;;0.33;100.00;101236.09;5192001;28;20052;-82
2021/12/06 01:13:03;;;;;;;30.00;27.13;;;;;;;0.67;100.00;101292.22;5189983;28;20101;-81
2021/12/06 01:15:35;;;;;;;29.60;27.20;;;;;;;0.59;100.00;101276.34;5193371;28;20057;-84
2021/12/06 01:18:07;;;;;;;33.42;29.80;;;;;;;0.66;100.00;101295.91;5198744;28;20028;-82
2021/12/06 01:20:44;;;;;;;29.42;26.50;;;;;;;0.82;100.00;101310.88;5200186;28;20506;-82
2021/12/06 01:23:17;;;;;;;30.02;27.42;;;;;;;0.68;100.00;101272.63;5200821;28;20499;-82
2021/12/06 01:26:12;;;;;;;31.27;28.65;;;;;;;0.63;100.00;101244.94;5198723;28;20022;-83
2021/12/06 01:29:07;;;;;;;33.60;30.85;;;;;;;1.12;100.00;101309.06;5199975;28;20028;-85
2021/12/06 01:40:00;;;;;;;35.05;31.80;;;;;;;1.51;100.00;101337.22;5193805;28;20073;-83
2021/12/06 01:42:31;;;;;;;35.45;32.58;;;;;;;1.52;100.00;101337.03;5193660;28;20055;-84
2021/12/06 01:45:05;;;;;;;32.75;29.60;;;;;;;1.50;100.00;101335.56;5193426;28;20022;-84
2021/12/06 01:47:38;;;;;;;34.15;31.23;;;;;;;1.33;100.00;101303.84;5193789;28;20089;-84
2021/12/06 01:50:16;;;;;;;32.30;29.45;;;;;;;1.52;100.00;101337.03;5195507;28;20029;-82
2021/12/06 01:52:50;;;;;;;35.45;32.42;;;;;;;1.55;100.00;101333.16;5192691;28;20018;-82
2021/12/06 01:55:24;;;;;;;35.53;32.55;;;;;;;1.62;100.00;101353.53;5194183;28;20025;-82
2021/12/06 01:57:56;;;;;;;35.55;32.58;;;;;;;1.66;100.00;101354.00;5193025;28;20033;-82
2021/12/06 02:00:30;;;;;;;32.55;29.90;;;;;;;1.41;100.00;101315.41;5193476;28;20088;-82
2021/12/06 02:03:00;;;;;;;34.28;30.90;;;;;;;1.70;100.00;101368.59;5192957;28;20051;-83
2021/12/06 02:05:31;;;;;;;35.42;32.45;;;;;;;1.70;100.00;101355.28;5191891;28;20022;-83
2021/12/06 02:08:02;;;;;;;35.30;32.45;;;;;;;1.58;100.00;101336.28;5192288;28;20022;-81
2021/12/06 02:11:13;;;;;;;33.65;30.70;;;;;;;1.79;100.00;101375.47;5189449;28;20037;-81
2021/12/06 02:14:06;;;;;;;37.65;34.55;;;;;;;1.82;100.00;101388.41;5195907;28;20025;-82
2021/12/06 02:16:54;;;;;;;39.80;36.33;;;;;;;1.77;100.00;101372.16;5193824;28;20037;-82
2021/12/06 02:19:31;;;;;;;36.70;32.85;;;;;;;1.72;100.00;101374.56;5192809;28;20021;-84
2021/12/06 02:22:03;;;;;;;36.50;32.92;;;;;;;1.87;100.00;101380.69;5192735;28;20022;-84
2021/12/06 02:24:37;;;;;;;32.88;29.77;;;;;;;1.55;100.00;101335.84;5191433;28;20033;-83
2021/12/06 02:27:10;;;;;;;38.33;34.67;;;;;;;1.90;100.00;101385.66;5193108;28;20026;-83
2021/12/06 02:29:44;;;;;;;37.85;34.15;;;;;;;1.84;100.00;101372.25;5191730;28;20028;-80
2021/12/06 02:32:15;;;;;;;35.53;32.47;;;;;;;1.63;100.00;101336.56;5189032;28;20029;-81
2021/12/06 02:34:49;;;;;;;35.55;32.15;;;;;;;1.90;100.00;101382.16;5187619;28;20029;-81
2021/12/06 02:37:27;;;;;;;33.65;30.92;;;;;;;1.91;100.00;101381.97;5189379;28;20052;-81
2021/12/06 02:39:59;;;;;;;36.53;32.70;;;;;;;1.48;100.00;101310.97;5189622;28;20037;-81
2021/12/06 02:42:29;;;;;;;39.47;35.30;;;;;;;1.93;100.00;101387.13;5192195;28;20056;-82
2021/12/06 02:45:00;;;;;;;34.53;31.48;;;;;;;1.91;100.00;101376.63;5191038;28;20372;-84
2021/12/06 02:47:30;;;;;;;41.17;34.38;;;;;;;1.71;100.00;101342.81;5193215;28;20487;-84
2021/12/06 02:50:07;;;;;;;35.42;32.33;;;;;;;1.72;100.00;101345.28;5192855;28;20052;-84
2021/12/06 02:52:39;;;;;;;36.88;33.20;;;;;;;1.70;100.00;101336.66;5193079;28;20094;-84
2021/12/06 02:55:28;;;;;;;37.60;33.85;;;;;;;1.69;100.00;101333.16;5192606;28;20108;-84
2021/12/06 02:58:14;;;;;;;38.70;35.03;;;;;;;1.66;100.00;101340.69;5192638;28;20439;-84
2021/12/06 03:00:52;;;;;;;35.35;32.20;;;;;;;1.94;100.00;101373.59;5193060;28;20060;-84
2021/12/06 03:03:23;;;;;;;39.05;35.67;;;;;;;1.95;100.00;101377.94;5192532;28;20082;-83
2021/12/06 03:05:55;;;;;;;37.00;33.70;;;;;;;1.95;100.00;101369.94;5192692;28;20057;-81
2021/12/06 03:08:40;;;;;;;45.20;40.67;;;;;;;1.96;100.00;101368.91;5188958;28;20546;-81
2021/12/06 03:11:17;;;;;;;47.85;42.58;;;;;;;1.97;100.00;101375.91;5189551;28;20033;-80
2021/12/06 03:13:48;;;;;;;49.47;43.22;;;;;;;1.89;100.00;101369.84;5188706;28;20021;-81
2021/12/06 03:18:58;;;;;;;43.88;39.38;;;;;;;1.73;100.00;101351.44;5276839;28;20054;-80
2021/12/06 03:21:28;;;;;;;46.80;42.17;;;;;;;1.87;100.00;101382.53;5270598;28;20064;-80
2021/12/06 03:23:59;;;;;;;48.38;43.33;;;;;;;1.85;100.00;101377.38;5269276;28;20158;-80
2021/12/06 03:26:31;;;;;;;45.42;40.28;;;;;;;1.79;100.00;101383.44;5268515;28;20023;-79
2021/12/06 03:29:03;;;;;;;46.15;41.22;;;;;;;1.78;100.00;101392.44;5267932;28;20063;-80
2021/12/06 03:31:34;;;;;;;42.42;38.05;;;;;;;1.76;100.00;101386.47;5252737;28;20024;-80
2021/12/06 03:34:06;;;;;;;43.90;39.35;;;;;;;1.68;100.00;101381.28;5269596;28;20028;-80
2021/12/06 03:36:39;;;;;;;42.13;37.90;;;;;;;1.67;100.00;101387.59;5271042;28;20020;-80
2021/12/06 03:39:14;;;;;;;40.13;36.35;;;;;;;1.59;100.00;101382.38;5283552;28;20083;-82
2021/12/06 03:41:45;;;;;;;46.08;41.17;;;;;;;1.21;100.00;101337.22;5279782;28;20401;-80
2021/12/06 03:44:16;;;;;;;39.15;35.38;;;;;;;0.95;100.00;101310.25;5261164;28;20024;-82
2021/12/06 03:46:52;;;;;;;40.80;36.80;;;;;;;1.46;100.00;101403.47;5280372;28;20023;-81
2021/12/06 03:49:23;;;;;;;42.42;38.15;;;;;;;1.40;100.00;101398.91;5274770;28;20024;-80
2021/12/06 03:51:53;;;;;;;42.92;38.53;;;;;;;1.31;100.00;101396.31;5256074;28;20016;-80
2021/12/06 03:54:26;;;;;;;41.63;37.95;;;;;;;0.92;100.00;101326.56;5255275;28;20032;-82
2021/12/06 03:56:58;;;;;;;44.25;40.47;;;;;;;1.44;100.00;101405.50;5277845;28;20198;-80
2021/12/06 03:59:29;;;;;;;45.30;41.10;;;;;;;1.46;100.00;101404.28;5278840;28;20024;-82
2021/12/06 04:02:06;;;;;;;52.20;45.38;;;;;;;1.25;100.00;101361.63;5277091;28;20096;-83
2021/12/06 04:04:36;;;;;;;51.95;46.58;;;;;;;1.53;100.00;101404.38;5273685;28;20024;-80
2021/12/06 04:07:08;;;;;;;51.15;45.58;;;;;;;1.58;100.00;101410.81;5276802;28;20020;-81
2021/12/06 04:09:39;;;;;;;51.88;46.58;;;;;;;1.54;100.00;101395.41;5266011;28;20028;-81
2021/12/06 04:12:11;;;;;;;53.40;46.80;;;;;;;1.38;100.00;101371.66;5280970;28;20020;-82
2021/12/06 04:14:43;;;;;;;49.92;44.58;;;;;;;1.71;100.00;101415.50;5274187;22;20159;-59
2021/12/06 04:17:14;;;;;;;54.28;48.22;;;;;;;1.73;100.00;101404.69;5211877;28;20043;-59
2021/12/06 04:19:45;;;;;;;52.03;46.58;;;;;;;1.72;100.00;101406.53;5212218;28;20036;-59
2021/12/06 04:22:15;;;;;;;52.90;47.53;;;;;;;1.67;100.00;101400.91;5212026;28;20017;-59
2021/12/06 04:24:46;;;;;;;54.40;48.33;;;;;;;1.72;100.00;101421.66;5211958;28;20025;-59
2021/12/06 04:27:19;;;;;;;52.85;45.30;;;;;;;1.74;100.00;101425.75;5212017;28;20029;-59
2021/12/06 04:29:52;;;;;;;51.65;46.63;;;;;;;1.75;100.00;101423.94;5211699;28;20040;-59
2021/12/06 04:32:23;;;;;;;59.45;47.00;;;;;;;1.79;100.00;101425.22;5211475;28;20024;-59
2021/12/06 04:34:53;;;;;;;51.78;46.72;;;;;;;1.81;100.00;101432.00;5211344;28;20501;-59
2021/12/06 04:37:24;;;;;;;54.38;49.15;;;;;;;1.83;100.00;101430.00;5211732;28;20052;-59
2021/12/06 04:39:54;;;;;;;55.20;49.58;;;;;;;1.85;100.00;101440.47;5211206;28;20119;-59
2021/12/06 04:42:25;;;;;;;55.42;49.80;;;;;;;1.85;100.00;101425.31;5211349;28;20017;-59
2021/12/06 04:44:55;;;;;;;54.13;48.25;;;;;;;1.85;100.00;101425.31;5211165;28;20087;-59
2021/12/06 04:47:26;;;;;;;54.05;48.58;;;;;;;1.83;100.00;101422.00;5211132;28;20064;-59
2021/12/06 04:49:57;;;;;;;54.33;48.45;;;;;;;1.85;100.00;101430.63;5211234;28;20037;-59
2021/12/06 04:52:27;;;;;;;54.75;49.08;;;;;;;1.89;100.00;101429.25;5210860;28;20396;-59
2021/12/06 04:54:59;;;;;;;61.80;52.10;;;;;;;1.79;100.00;101434.03;5239255;22;20027;-85
2021/12/06 04:57:38;;;;;;;59.25;53.03;;;;;;;1.84;100.00;101439.63;5277975;28;20062;-84
2021/12/06 05:00:15;;;;;;;57.63;51.00;;;;;;;1.68;100.00;101422.03;5278657;28;20477;-85
2021/12/06 05:02:47;;;;;;;55.42;49.55;;;;;;;1.79;100.00;101444.69;5278854;28;20492;-85
2021/12/06 05:05:32;;;;;;;54.75;49.35;;;;;;;1.56;100.00;101434.13;5260345;28;20098;-85
2021/12/06 05:08:09;;;;;;;57.70;51.17;;;;;;;1.50;100.00;101426.88;5279247;28;20366;-84
2021/12/06 05:10:41;;;;;;;56.40;50.88;;;;;;;1.75;100.00;101451.38;5280112;28;20050;-84
2021/12/06 05:13:11;;;;;;;62.33;52.40;;;;;;;1.47;100.00;101421.09;5280016;28;20071;-85
2021/12/06 05:15:43;;;;;;;64.97;50.42;;;;;;;1.52;100.00;101424.84;5279970;28;20089;-85
2021/12/06 05:18:14;;;;;;;58.22;52.25;;;;;;;1.62;100.00;101430.75;5279694;28;20020;-86
2021/12/06 05:20:44;;;;;;;54.42;47.00;;;;;;;1.75;100.00;101446.06;5279758;28;20020;-85
2021/12/06 05:23:15;;;;;;;64.55;53.75;;;;;;;1.42;100.00;101389.72;5260516;28;20075;-85
2021/12/06 05:25:46;;;;;;;60.47;53.97;;;;;;;1.73;100.00;101437.47;5277344;28;20073;-85
2021/12/06 05:28:21;;;;;;;62.35;51.10;;;;;;;1.67;100.00;101433.69;5260367;28;20024;-84
2021/12/06 05:30:55;;;;;;;56.67;49.53;;;;;;;1.68;100.00;101422.03;5278004;28;20031;-84
2021/12/06 05:33:30;;;;;;;63.25;53.42;;;;;;;1.75;100.00;101435.41;5276449;28;20469;-85
2021/12/06 05:36:03;;;;;;;61.40;51.72;;;;;;;1.79;100.00;101441.19;5257425;28;20047;-84
2021/12/06 05:38:34;;;;;;;64.20;52.17;;;;;;;1.52;100.00;101414.22;5274905;28;20055;-85
2021/12/06 05:41:05;;;;;;;53.90;45.35;;;;;;;1.76;100.00;101463.69;5273795;28;20085;-84
2021/12/06 05:43:35;;;;;;;54.95;48.95;;;;;;;1.41;100.00;101409.34;5254755;28;20024;-85
2021/12/06 05:46:06;;;;;;;54.92;47.08;;;;;;;1.76;100.00;101473.50;5272925;28;20031;-85
2021/12/06 05:48:36;;;;;;;61.30;48.78;;;;;;;1.59;100.00;101441.75;5254576;28;20028;-85
2021/12/06 05:51:07;;;;;;;53.35;47.70;;;;;;;1.75;100.00;101471.84;5255129;28;20097;-85
2021/12/06 05:53:37;;;;;;;51.15;45.72;;;;;;;1.75;100.00;101461.22;5276597;28;20028;-85
2021/12/06 05:56:08;;;;;;;55.00;49.92;;;;;;;1.59;100.00;101440.94;5258341;28;20028;-84
2021/12/06 05:58:38;;;;;;;58.33;51.85;;;;;;;1.68;100.00;101455.81;5260035;28;20062;-85
2021/12/06 06:01:09;;;;;;;56.70;50.80;;;;;;;1.31;100.00;101417.59;5258735;28;20024;-85
2021/12/06 06:03:40;;;;;;;52.95;47.20;;;;;;;1.61;100.00;101437.06;5274900;28;20028;-85
2021/12/06 06:06:10;;;;;;;55.78;46.67;;;;;;;1.34;100.00;101398.63;5257655;28;20065;-85
2021/12/06 06:08:40;;;;;;;57.05;46.45;;;;;;;1.85;100.00;101478.56;5275439;28;20589;-84
2021/12/06 06:11:11;;;;;;;56.40;45.95;;;;;;;1.87;100.00;101489.03;5277340;28;20107;-84
2021/12/06 06:13:41;;;;;;;56.15;49.55;;;;;;;1.63;100.00;101448.38;5258534;28;20031;-84
2021/12/06 06:16:18;;;;;;;56.75;49.80;;;;;;;1.86;100.00;101484.72;5276354;28;20067;-84
2021/12/06 06:18:50;;;;;;;55.75;49.70;;;;;;;1.86;100.00;101484.72;5277214;28;20032;-85
2021/12/06 06:21:21;;;;;;;56.60;50.38;;;;;;;1.75;100.00;101471.84;5276716;28;20043;-85
2021/12/06 06:23:52;;;;;;;59.28;51.75;;;;;;;1.76;100.00;101477.00;5277187;28;20031;-84
2021/12/06 06:26:23;;;;;;;59.25;52.92;;;;;;;1.53;100.00;101447.81;5276756;28;20028;-84
2021/12/06 06:28:53;;;;;;;61.30;49.60;;;;;;;1.81;100.00;101495.91;5276825;28;20212;-85
2021/12/06 06:31:24;;;;;;;57.40;51.70;;;;;;;1.52;100.00;101459.47;5277430;28;20042;-84
2021/12/06 06:33:54;;;;;;;55.75;44.88;;;;;;;1.55;100.00;101483.06;5258446;28;20481;-84
2021/12/06 06:36:25;;;;;;;50.30;45.22;;;;;;;1.56;100.00;101474.06;5276532;28;20448;-85
2021/12/06 06:38:55;;;;;;;49.90;43.83;;;;;;;1.69;100.00;101492.91;5274193;28;20020;-84
2021/12/06 06:41:26;;;;;;;52.38;46.50;;;;;;;1.66;100.00;101495.09;5255334;28;20489;-85
2021/12/06 06:43:57;;;;;;;66.72;59.47;;;;;;;1.28;100.00;101449.88;5273160;28;20027;-85
2021/12/06 06:46:27;;;;;;;54.17;47.17;;;;;;;1.45;100.00;101473.66;5273721;28;20396;-86
2021/12/06 06:48:59;;;;;;;62.53;52.08;;;;;;;1.66;100.00;101513.75;5254022;28;20047;-86
2021/12/06 06:51:29;;;;;;;102.85;51.10;;;;;;;1.63;100.00;101500.78;5256073;28;20091;-85
2021/12/06 06:54:00;;;;;;;56.22;49.90;;;;;;;1.59;100.00;101512.78;5275080;28;20056;-85
2021/12/06 06:56:32;;;;;;;60.17;47.20;;;;;;;1.60;100.00;101506.47;5274385;28;20207;-85
2021/12/06 06:59:03;;;;;;;56.88;50.03;;;;;;;1.62;100.00;101509.78;5273678;28;20557;-85
2021/12/06 07:01:33;;;;;;;55.85;49.13;;;;;;;1.56;100.00;101499.84;5256664;28;20024;-85
2021/12/06 07:04:04;;;;;;;55.80;50.30;;;;;;;1.55;100.00;101500.84;5273575;28;20440;-85
2021/12/06 07:06:35;;;;;;;52.17;46.42;;;;;;;1.43;100.00;101489.00;5274314;28;20053;-86
2021/12/06 07:09:06;;;;;;;59.63;51.22;;;;;;;1.39;100.00;101493.03;5256182;28;20027;-85
2021/12/06 07:11:37;;;;;;;59.25;51.40;;;;;;;1.61;100.00;101529.41;5255708;28;20031;-85
2021/12/06 07:14:07;;;;;;;73.63;50.13;;;;;;;1.60;100.00;101522.44;5276963;28;20024;-85
2021/12/06 07:16:38;;;;;;;62.42;48.85;;;;;;;1.44;100.00;101509.28;5278857;28;20030;-86
2021/12/06 07:19:11;;;;;;;59.78;51.25;;;;;;;1.42;100.00;101498.00;5278893;28;20505;-85
2021/12/06 07:21:41;;;;;;;55.80;48.88;;;;;;;1.29;100.00;101478.16;5278605;28;20028;-84
2021/12/06 07:24:12;;;;;;;64.03;45.65;;;;;;;1.30;100.00;101478.97;5278062;28;20032;-86
2021/12/06 07:26:42;;;;;;;50.17;43.65;;;;;;;1.43;100.00;101499.66;5277597;28;20462;-86
2021/12/06 07:29:13;;;;;;;66.13;50.47;;;;;;;1.26;100.00;101473.19;5279682;28;20032;-85
2021/12/06 07:31:43;;;;;;;102.65;51.88;;;;;;;1.49;100.00;101520.19;5261678;28;20054;-85
2021/12/06 07:34:14;;;;;;;67.35;51.67;;;;;;;1.44;100.00;101510.13;5261129;28;20028;-85
2021/12/06 07:36:45;;;;;;;105.20;52.67;;;;;;;1.33;100.00;101484.75;5261515;28;20028;-86
2021/12/06 07:39:15;;;;;;;56.50;45.35;;;;;;;1.17;100.00;101466.25;5259842;28;20031;-86
2021/12/06 07:41:46;;;;;;;64.32;45.22;;;;;;;1.46;100.00;101516.06;5260812;28;20026;-86
2021/12/06 07:44:16;;;;;;;69.25;45.92;;;;;;;1.47;100.00;101512.41;5279121;28;20032;-86
2021/12/06 07:46:48;;;;;;;76.68;44.42;;;;;;;1.34;100.00;101499.72;5260611;28;20031;-87
2021/12/06 07:49:20;;;;;;;121.25;48.15;;;;;;;1.45;100.00;101508.25;5258789;28;20024;-84
2021/12/06 07:51:51;;;;;;;113.40;45.83;;;;;;;1.41;100.00;101512.31;5258607;28;20024;-86
2021/12/06 07:54:21;;;;;;;137.70;53.20;;;;;;;1.05;100.00;101449.09;5277813;28;20038;-85
2021/12/06 07:56:51;;;;;;;133.80;48.72;;;;;;;1.31;100.00;101502.75;5258982;28;20272;-85
2021/12/06 07:59:22;;;;;;;110.72;46.70;;;;;;;1.18;100.00;101475.91;5277214;28;20075;-85
2021/12/06 08:01:53;;;;;;;131.27;43.60;;;;;;;0.99;100.00;101455.97;5258825;28;20020;-85
2021/12/06 08:04:23;;;;;;;115.88;48.30;;;;;;;1.31;100.00;101493.94;5258685;28;20026;-86
2021/12/06 08:06:53;;;;;;;102.97;49.42;;;;;;;1.28;100.00;101503.09;5276366;28;20566;-86
2021/12/06 08:09:24;;;;;;;93.38;41.58;;;;;;;1.10;100.00;101468.00;5263661;28;20036;-85
2021/12/06 08:11:55;;;;;;;111.72;43.05;;;;;;;0.93;100.00;101451.34;5281961;28;20059;-86
2021/12/06 08:14:26;;;;;;;125.00;49.78;;;;;;;0.85;100.00;101447.94;5280517;28;20020;-86
2021/12/06 08:16:57;;;;;;;91.40;47.47;;;;;;;1.30;100.00;101509.06;5264977;28;20054;-85
2021/12/06 08:19:28;;;;;;;101.68;45.05;;;;;;;1.04;100.00;101473.22;5283272;28;20024;-87
2021/12/06 08:21:58;;;;;;;168.50;48.75;;;;;;;0.84;100.00;101435.66;5285280;28;20055;-86
2021/12/06 08:24:31;;;;;;;95.25;44.22;;;;;;;1.21;100.00;101480.88;5284069;28;20024;-86
2021/12/06 08:27:02;;;;;;;128.18;45.33;;;;;;;0.70;100.00;101408.00;5266834;28;20047;-85
2021/12/06 08:29:32;;;;;;;114.32;39.40;;;;;;;0.81;100.00;101452.78;5284867;28;20049;-87
2021/12/06 08:32:03;;;;;;;92.05;44.15;;;;;;;1.32;100.00;101519.53;5266963;28;20052;-88
2021/12/06 08:34:34;;;;;;;75.22;41.25;;;;;;;1.34;100.00;101526.34;5266966;28;20039;-86
2021/12/06 08:37:04;;;;;;;85.40;39.83;;;;;;;1.36;100.00;101520.84;5284505;28;20261;-85
2021/12/06 08:39:35;;;;;;;136.45;43.10;;;;;;;1.26;100.00;101531.72;5266773;28;20043;-84
2021/12/06 08:42:07;;;;;;;68.28;40.20;;;;;;;1.14;100.00;101516.38;5266109;28;20016;-86
2021/12/06 08:44:37;;;;;;;67.47;43.05;;;;;;;0.85;100.00;101490.47;5283768;28;20024;-86
2021/12/06 08:47:08;;;;;;;61.22;37.88;;;;;;;1.18;100.00;101522.97;5266456;28;20027;-86
2021/12/06 08:49:38;;;;;;;89.35;43.38;;;;;;;1.33;100.00;101540.63;5266664;28;20020;-85
2021/12/06 08:52:09;;;;;;;94.55;40.95;;;;;;;0.76;100.00;101455.16;5283858;28;20242;-85
2021/12/06 08:54:40;;;;;;;56.65;34.85;;;;;;;1.30;100.00;101553.47;5283040;28;20064;-85
2021/12/06 08:57:11;;;;;;;58.38;35.63;;;;;;;1.23;100.00;101555.19;5261474;28;20024;-86
2021/12/06 08:59:42;;;;;;;45.25;37.40;;;;;;;0.90;100.00;101498.72;5256919;28;20020;-86
2021/12/06 09:02:14;;;;;;;92.68;43.78;;;;;;;1.33;100.00;101569.91;5275233;28;20074;-86
2021/12/06 09:04:45;;;;;;;65.40;38.88;;;;;;;1.22;100.00;101532.25;5274841;28;20024;-85
2021/12/06 09:07:15;;;;;;;58.50;41.28;;;;;;;1.22;100.00;101518.94;5274016;28;20035;-87
2021/12/06 09:09:49;;;;;;;52.97;40.17;;;;;;;1.24;100.00;101512.44;5259046;28;20040;-86
2021/12/06 09:12:24;;;;;;;74.55;39.53;;;;;;;1.56;100.00;101564.56;5274004;28;20045;-86
2021/12/06 09:14:59;;;;;;;44.83;39.75;;;;;;;1.47;100.00;101552.31;5255917;28;20031;-87
2021/12/06 09:17:30;;;;;;;59.55;41.60;;;;;;;1.25;100.00;101511.44;5258457;28;20102;-85
2021/12/06 09:20:02;;;;;;;85.38;39.65;;;;;;;1.61;100.00;101569.34;5257922;28;20124;-85
2021/12/06 09:22:45;;;;;;;64.10;40.05;;;;;;;1.46;100.00;101548.00;5275329;28;20016;-86
2021/12/06 09:25:16;;;;;;;78.18;39.33;;;;;;;1.16;100.00;101509.84;5236646;28;20059;-88
2021/12/06 09:27:47;;;;;;;56.28;38.72;;;;;;;1.39;100.00;101536.44;5253607;28;20096;-86
2021/12/06 09:30:23;;;;;;;85.03;43.75;;;;;;;1.53;100.00;101561.44;5235849;28;20028;-87
2021/12/06 09:32:57;;;;;;;68.47;40.53;;;;;;;1.28;100.00;101555.47;5236571;28;20024;-86
2021/12/06 09:35:29;;;;;;;80.72;38.05;;;;;;;1.08;100.00;101528.53;5238454;28;20058;-87
2021/12/06 09:37:59;;;;;;;41.15;33.80;;;;;;;0.94;100.00;101502.69;5239499;28;20080;-87
2021/12/06 09:40:33;;;;;;;39.92;34.47;;;;;;;1.32;100.00;101581.56;5258332;28;20033;-86
2021/12/06 09:43:07;;;;;;;55.50;37.47;;;;;;;1.27;100.00;101559.97;5238723;28;20504;-87
2021/12/06 09:45:39;;;;;;;42.85;37.42;;;;;;;1.18;100.00;101549.56;5238155;28;20078;-88
2021/12/06 09:48:10;;;;;;;45.22;36.08;;;;;;;1.22;100.00;101545.53;5256130;28;20036;-87
2021/12/06 09:51:09;;;;;;;64.40;35.55;;;;;;;1.38;100.00;101557.91;5238747;28;20027;-88
2021/12/06 09:53:42;;;;;;;36.55;30.98;;;;;;;0.94;100.00;101505.34;5256564;28;20070;-88
2021/12/06 09:56:23;;;;;;;41.30;31.30;;;;;;;1.24;100.00;101547.03;5256707;28;20056;-87
2021/12/06 09:58:56;;;;;;;38.72;31.90;;;;;;;1.35;100.00;101561.75;5235654;28;20119;-87
2021/12/06 10:01:34;;;;;;;35.40;30.50;;;;;;;1.20;100.00;101548.38;5249639;28;20020;-87
2021/12/06 10:04:08;;;;;;;49.65;30.35;;;;;;;1.38;100.00;101555.25;5274467;28;20028;-87
2021/12/06 10:06:38;;;;;;;47.38;31.30;;;;;;;0.91;100.00;101503.03;5272550;28;20043;-84
2021/12/06 10:09:11;;;;;;;38.05;29.90;;;;;;;0.88;100.00;101490.09;5255679;28;20024;-86
2021/12/06 10:11:42;;;;;;;50.13;34.10;;;;;;;1.31;100.00;101550.63;5256178;28;20111;-85
2021/12/06 10:14:15;;;;;;;47.15;34.88;;;;;;;0.89;100.00;101486.44;5255146;28;20081;-85
2021/12/06 10:16:47;;;;;;;35.08;31.30;;;;;;;0.83;100.00;101481.84;5273311;28;20032;-87
2021/12/06 10:19:17;;;;;;;35.30;31.60;;;;;;;1.03;100.00;101501.63;5272837;28;20028;-85
2021/12/06 10:21:48;;;;;;;35.28;31.50;;;;;;;1.47;100.00;101559.47;5253860;28;20035;-84
2021/12/06 10:24:23;;;;;;;34.70;29.58;;;;;;;1.29;100.00;101527.88;5270941;28;20016;-87
2021/12/06 10:27:12;;;;;;;55.20;31.77;;;;;;;1.32;100.00;101552.28;5253277;28;20048;-84
2021/12/06 10:29:52;;;;;;;39.15;31.33;;;;;;;1.29;100.00;101536.69;5272129;28;20135;-85
2021/12/06 10:32:25;;;;;;;32.72;29.50;;;;;;;0.93;100.00;101467.31;5271610;28;20104;-85
2021/12/06 10:35:09;;;;;;;37.28;33.63;;;;;;;1.34;100.00;101514.84;5252494;28;20028;-85
2021/12/06 10:37:45;;;;;;;30.10;27.35;;;;;;;1.45;100.00;101506.44;5253283;28;20028;-85
2021/12/06 10:40:20;;;;;;;27.70;24.98;;;;;;;1.50;100.00;101487.25;5275502;28;20020;-85
2021/12/06 10:42:51;;;;;;;31.88;28.60;;;;;;;1.58;100.00;101496.00;5276997;28;20437;-85
2021/12/06 10:45:24;;;;;;;30.95;28.08;;;;;;;1.61;100.00;101484.16;5267833;28;20036;-86
2021/12/06 10:48:22;;;;;;;39.90;29.15;;;;;;;1.70;100.00;101483.09;5270765;28;20062;-86
2021/12/06 10:50:52;;;;;;;32.85;29.83;;;;;;;1.84;100.00;101481.41;5273457;28;20035;-84
2021/12/06 10:53:24;;;;;;;33.83;30.77;;;;;;;1.77;100.00;101462.69;5272746;28;20028;-82
2021/12/06 10:55:56;;;;;;;30.75;27.88;;;;;;;1.85;100.00;101469.75;5275142;28;20514;-85
2021/12/06 10:58:29;;;;;;;31.58;28.50;;;;;;;1.61;100.00;101412.28;5278018;22;20047;-87
2021/12/06 11:01:07;;;;;;;29.77;26.95;;;;;;;1.11;100.00;101296.78;5265801;28;20028;-88
2021/12/06 11:03:47;;;;;;;30.13;27.42;;;;;;;1.54;100.00;101409.53;5265657;28;20046;-90
2021/12/06 11:06:25;;;;;;;33.70;30.60;;;;;;;0.79;100.00;101251.94;5268167;28;20032;-88
2021/12/06 11:08:58;;;;;;;29.92;27.45;;;;;;;1.49;100.00;101365.84;5267786;28;20035;-86
2021/12/06 11:11:34;;;;;;;33.15;30.23;;;;;;;1.89;100.00;101409.78;5268284;28;20032;-86
2021/12/06 11:14:19;;;;;;;35.33;31.92;;;;;;;1.84;100.00;101418.34;5267899;28;20394;-87
2021/12/06 11:16:54;;;;;;;33.92;30.70;;;;;;;1.94;100.00;101412.72;5283412;28;20020;-85
2021/12/06 11:19:31;;;;;;;35.72;32.22;;;;;;;1.83;100.00;101387.38;5261325;28;20024;-87
2021/12/06 11:22:11;;;;;;;37.33;34.00;;;;;;;1.88;100.00;101387.66;5261410;28;20020;-84
2021/12/06 11:24:46;;;;;;;34.25;31.08;;;;;;;2.04;100.00;101403.41;5280823;28;20039;-86
2021/12/06 11:27:20;;;;;;;37.80;33.28;;;;;;;2.03;100.00;101399.09;5263420;28;20028;-87
2021/12/06 11:29:52;;;;;;;35.63;32.20;;;;;;;2.08;100.00;101403.03;5263698;28;20028;-88
2021/12/06 11:32:31;;;;;;;36.78;33.13;;;;;;;2.11;100.00;101402.69;5263381;28;20020;-89
2021/12/06 11:35:06;;;;;;;34.47;31.25;;;;;;;2.26;100.00;101412.31;5263297;28;20028;-88
2021/12/06 11:37:39;;;;;;;35.60;32.00;;;;;;;2.35;100.00;101402.34;5262072;28;20428;-88
2021/12/06 11:40:24;;;;;;;35.65;32.22;;;;;;;2.45;100.00;101392.19;5282169;28;20397;-87
2021/12/06 11:43:21;;;;;;;35.00;31.55;;;;;;;2.40;100.00;101367.94;5262974;28;20020;-91
2021/12/06 11:45:57;;;;;;;33.38;30.00;;;;;;;2.22;100.00;101332.94;5276933;28;20070;-87
2021/12/06 11:48:35;;;;;;;38.33;32.83;;;;;;;2.47;100.00;101376.84;5264089;28;20083;-92
2021/12/06 11:51:08;;;;;;;33.67;30.45;;;;;;;2.48;100.00;101372.34;5268108;28;20457;-89
2021/12/06 11:53:46;;;;;;;35.17;32.03;;;;;;;2.56;100.00;101373.03;5270497;28;20091;-85